Data for 03/04/2008

Time Sea-Level Adjusted Pressure Absolute Pressure Temperature Relative Humidity Dew Point   
(mb) (inHg) (mb) (inHg) (C) (F) (%) (C) (F)
00:05 1009 29.8 839 24.78 1.1 33.9 57 -6.4 20.5
00:10 1010 29.83 839 24.78 1.2 34.1 57 -6.4 20.5
00:15 1009 29.8 839 24.78 1.2 34.1 57 -6.4 20.5
00:20 1009 29.8 839 24.78 1.1 34 57 -6.4 20.4
00:25 1009 29.8 839 24.78 1.1 33.9 59 -6.1 21
00:30 1009 29.8 839 24.78 1 33.8 60 -5.9 21.4
00:35 1009 29.8 839 24.78 1 33.7 61 -5.8 21.6
00:40 1009 29.8 839 24.78 0.9 33.7 61 -5.7 21.8
00:45 1009 29.8 838 24.75 0.9 33.7 61 -5.7 21.8
00:50 1009 29.8 838 24.75 0.8 33.5 62 -5.6 22
00:55 1009 29.8 838 24.75 0.9 33.5 63 -5.5 22.2
01:00 1009 29.8 838 24.75 0.8 33.5 63 -5.3 22.4
01:05 1009 29.8 838 24.75 0.6 33.1 65 -5.3 22.5
01:10 1009 29.8 838 24.75 0.5 33 64 -5.5 22.1
01:15 1009 29.8 838 24.75 0.7 33.2 64 -5.4 22.2
01:20 1009 29.8 838 24.75 0.6 33 65 -5.3 22.5
01:25 1009 29.8 838 24.75 0.1 32.3 67 -5.4 22.4
01:30 1009 29.8 838 24.75 -0.2 31.6 67 -5.6 22
01:35 1009 29.8 838 24.75 -0.3 31.5 67 -5.7 21.8
01:40 1009 29.8 838 24.75 -0.3 31.5 66 -5.8 21.6
01:45 1009 29.8 838 24.75 -0.2 31.6 67 -5.7 21.7
01:50 1009 29.8 838 24.75 -0.3 31.5 67 -5.7 21.7
01:55 1009 29.8 838 24.75 -0.3 31.5 67 -5.8 21.6
02:00 1009 29.8 838 24.75 -0.2 31.6 67 -5.6 22
02:05 1009 29.8 838 24.75 -0.4 31.4 67 -5.7 21.7
02:10 1009 29.8 838 24.75 -0.2 31.6 66 -5.8 21.5
02:15 1009 29.8 839 24.78 -0.1 31.8 66 -5.8 21.6
02:20 1009 29.8 839 24.78 0.1 32.1 65 -5.7 21.8
02:25 1009 29.8 839 24.78 -0 32 67 -5.4 22.2
02:30 1009 29.8 839 24.78 -0.4 31.3 69 -5.5 22.2
02:35 1009 29.8 839 24.78 -0.5 31.2 69 -5.4 22.3
02:40 1009 29.8 839 24.78 -0.5 31.1 70 -5.4 22.3
02:45 1009 29.8 839 24.78 -0.4 31.2 69 -5.4 22.2
02:50 1009 29.8 839 24.78 -0.5 31.1 69 -5.5 22.1
02:55 1009 29.8 838 24.75 -0.5 31.2 69 -5.5 22.1
03:00 1009 29.8 838 24.75 -0.5 31.1 69 -5.5 22.1
03:05 1009 29.8 838 24.75 -0.5 31 68 -5.7 21.8
03:10 1009 29.8 838 24.75 -0.6 31 68 -5.7 21.7
03:15 1009 29.8 838 24.75 -0.6 31 68 -5.9 21.5
03:20 1009 29.8 838 24.75 -0.5 31.1 67 -5.9 21.4
03:25 1009 29.8 838 24.75 -0.4 31.2 67 -5.8 21.5
03:30 1009 29.8 838 24.75 -0.4 31.2 67 -5.9 21.4
03:35 1009 29.8 838 24.75 -0.4 31.2 67 -5.9 21.4
03:40 1009 29.8 838 24.75 -0.5 31.2 67 -5.9 21.4
03:45 1009 29.8 838 24.75 -0.5 31.1 66 -6 21.2
03:50 1009 29.8 838 24.75 -0.4 31.2 66 -6 21.2
03:55 1009 29.8 838 24.75 -0.4 31.2 65 -6.2 20.8
04:00 1009 29.8 838 24.75 -0.3 31.4 64 -6.3 20.7
04:05 1009 29.8 838 24.75 -0.3 31.4 64 -6.4 20.4
04:10 1009 29.8 838 24.75 -0.4 31.3 64 -6.4 20.4
04:15 1009 29.8 838 24.75 -0.4 31.3 63 -6.5 20.3
04:20 1009 29.8 838 24.75 -0.4 31.3 63 -6.6 20
04:25 1009 29.8 838 24.75 -0.4 31.2 62 -6.8 19.8
04:30 1009 29.8 838 24.75 -0.4 31.2 63 -6.7 19.9
04:35 1009 29.8 838 24.75 -0.5 31.1 63 -6.7 19.9
04:40 1009 29.8 838 24.75 -0.5 31 63 -6.8 19.8
04:45 1009 29.8 838 24.75 -0.5 31 62 -6.8 19.7
04:50 1009 29.8 838 24.75 -0.3 31.4 60 -7.2 19.1
04:55 1009 29.8 838 24.75 -0.2 31.6 59 -7.2 19
05:00 1009 29.8 839 24.78 -0.3 31.5 60 -7.1 19.1
05:05 1009 29.8 839 24.78 -0.5 31.2 61 -7.2 19.1
05:10 1009 29.8 839 24.78 -0.6 30.9 61 -7.2 19
05:15 1009 29.8 839 24.78 -0.6 30.9 61 -7.2 19
05:20 1010 29.83 839 24.78 -0.6 30.9 61 -7.2 19
05:25 1010 29.83 839 24.78 -0.6 30.9 61 -7.3 18.9
05:30 1010 29.83 839 24.78 -0.6 31 61 -7.2 19.1
05:35 1010 29.83 839 24.78 -0.5 31.1 61 -7.1 19.2
05:40 1010 29.83 839 24.78 -0.5 31.1 62 -7 19.3
05:45 1010 29.83 839 24.78 -0.6 31 62 -7 19.3
05:50 1010 29.83 839 24.78 -0.7 30.8 62 -7 19.4
05:55 1010 29.83 839 24.78 -0.7 30.7 62 -7.1 19.2
06:00 1010 29.83 839 24.78 -0.7 30.8 61 -7.2 19
06:05 1010 29.83 839 24.78 -0.5 31.1 60 -7.3 18.8
06:10 1010 29.83 839 24.78 -0.4 31.3 59 -7.5 18.5
06:15 1010 29.83 839 24.78 -0.3 31.5 58 -7.6 18.3
06:20 1010 29.83 839 24.78 -0.3 31.5 57 -7.7 18.1
06:25 1010 29.83 839 24.78 -0.2 31.6 57 -7.8 18
06:30 1010 29.83 839 24.78 -0.3 31.4 57 -7.8 18
06:35 1010 29.83 839 24.78 -0.4 31.3 57 -7.9 17.8
06:40 1010 29.83 840 24.81 -0.4 31.2 57 -8 17.7
06:45 1010 29.83 840 24.81 -0.5 31.1 57 -8 17.7
06:50 1010 29.83 840 24.81 -0.6 30.9 58 -7.9 17.7
06:55 1010 29.83 840 24.81 -0.7 30.8 58 -7.9 17.8
07:00 1011 29.85 840 24.81 -0.7 30.7 58 -8 17.7
07:05 1011 29.85 840 24.81 -0.7 30.7 58 -8 17.6
07:10 1011 29.85 840 24.81 -0.6 30.8 57 -8 17.5
07:15 1011 29.85 840 24.81 -0.7 30.8 58 -7.9 17.8
07:20 1011 29.85 840 24.81 -0.7 30.7 59 -7.8 17.9
07:25 1011 29.85 840 24.81 -0.7 30.7 59 -7.7 18.1
07:30 1011 29.85 840 24.81 -0.8 30.6 60 -7.7 18.2
07:35 1011 29.85 840 24.81 -0.8 30.6 60 -7.6 18.2
07:40 1011 29.85 841 24.83 -0.7 30.7 60 -7.6 18.4
07:45 1011 29.85 841 24.83 -0.7 30.7 61 -7.4 18.6
07:50 1011 29.85 841 24.83 -0.7 30.7 60 -7.5 18.6
07:55 1011 29.85 841 24.83 -0.7 30.7 61 -7.3 18.8
08:00 1011 29.85 841 24.83 -0.8 30.6 62 -7.1 19.2
08:05 1012 29.88 841 24.83 -0.8 30.5 65 -6.6 20.1
08:10 1012 29.88 841 24.83 -1 30.3 66 -6.5 20.3
08:15 1012 29.88 841 24.83 -1 30.1 68 -6.2 20.9
08:20 1012 29.88 841 24.83 -1.1 30 69 -6.1 21.1
08:25 1012 29.88 841 24.83 -1 30.2 69 -5.9 21.3
08:30 1012 29.88 841 24.83 -1 30.2 70 -5.8 21.6
08:35 1012 29.88 841 24.83 -1 30.2 71 -5.6 21.9
08:40 1012 29.88 841 24.83 -1.1 30 73 -5.3 22.5
08:45 1012 29.88 841 24.83 -1.3 29.6 76 -5.1 22.9
08:50 1012 29.88 841 24.83 -1.6 29.1 79 -4.9 23.3
08:55 1012 29.88 841 24.83 -1.7 29 80 -4.6 23.7
09:00 1012 29.88 841 24.83 -1.9 28.6 82 -4.6 23.7
09:05 1012 29.88 841 24.83 -2.1 28.3 83 -4.6 23.8
09:10 1012 29.88 842 24.86 -2.1 28.2 84 -4.6 23.8
09:15 1012 29.88 842 24.86 -2.1 28.1 84 -4.5 23.9
09:20 1013 29.91 842 24.86 -2.1 28.1 84 -4.5 24
09:25 1013 29.91 842 24.86 -2.2 28.1 85 -4.4 24.1
09:30 1013 29.91 842 24.86 -2 28.4 86 -4 24.8
09:35 1013 29.91 842 24.86 -2.1 28.2 87 -4.1 24.7
09:40 1013 29.91 842 24.86 -2.4 27.6 88 -4.2 24.4
09:45 1013 29.91 842 24.86 -2.3 27.8 88 -4.1 24.6
09:50 1013 29.91 842 24.86 -2.2 28 88 -3.9 24.9
09:55 1013 29.91 842 24.86 -2.2 28.1 88 -3.9 25
10:00 1013 29.91 842 24.86 -2.3 27.8 89 -3.9 24.9
10:05 1013 29.91 842 24.86 -2.2 28 88 -3.9 24.9
10:10 1013 29.91 842 24.86 -1.8 28.8 86 -3.8 25.2
10:15 1013 29.91 842 24.86 -1.6 29.1 84 -3.9 25
10:20 1013 29.91 842 24.86 -1.3 29.6 83 -3.8 25.2
10:25 1013 29.91 842 24.86 -1.3 29.7 83 -3.7 25.3
10:30 1013 29.91 842 24.86 -1.3 29.6 84 -3.7 25.4
10:35 1013 29.91 842 24.86 -1.4 29.5 84 -3.7 25.3
10:40 1013 29.91 842 24.86 -1.7 28.9 86 -3.7 25.3
10:45 1013 29.91 842 24.86 -1.7 28.9 87 -3.7 25.3
10:50 1013 29.91 843 24.89 -1.4 29.4 87 -3.4 25.9
10:55 1013 29.91 843 24.89 -1 30.2 86 -3.1 26.4
11:00 1013 29.91 843 24.89 -1 30.2 86 -3 26.6
11:05 1014 29.94 843 24.89 -0.6 30.9 86 -2.8 27
11:10 1014 29.94 843 24.89 -0.4 31.2 85 -2.7 27.1
11:15 1014 29.94 843 24.89 -0.4 31.3 85 -2.7 27.2
11:20 1014 29.94 843 24.89 -0.4 31.2 85 -2.7 27.1
11:25 1014 29.94 843 24.89 -0.7 30.8 84 -3 26.7
11:30 1014 29.94 843 24.89 -1 30.2 85 -3.3 26.1
11:35 1014 29.94 843 24.89 -1.4 29.5 86 -3.5 25.7
11:40 1014 29.94 843 24.89 -1.5 29.4 85 -3.6 25.5
11:45 1014 29.94 843 24.89 -1.5 29.3 86 -3.6 25.6
11:50 1014 29.94 843 24.89 -1.2 29.9 85 -3.4 25.9
11:55 1014 29.94 843 24.89 -0.9 30.4 84 -3.3 26.1
12:00 1014 29.94 843 24.89 -0.9 30.4 84 -3.3 26
12:05 1014 29.94 843 24.89 -0.8 30.5 82 -3.6 25.6
12:10 1014 29.94 843 24.89 -1 30.2 83 -3.5 25.6
12:15 1014 29.94 843 24.89 -1.1 30 83 -3.6 25.5
12:20 1014 29.94 843 24.89 -0.8 30.5 81 -3.6 25.4
12:25 1014 29.94 843 24.89 -0.9 30.4 82 -3.7 25.4
12:30 1014 29.94 843 24.89 -1 30.1 83 -3.5 25.7
12:35 1014 29.94 843 24.89 -0.7 30.8 82 -3.4 26
12:40 1014 29.94 843 24.89 -0.6 30.9 82 -3.3 26
12:45 1014 29.94 843 24.89 -0.7 30.7 84 -3.2 26.3
12:50 1014 29.94 843 24.89 -0.8 30.5 84 -3.2 26.3
12:55 1014 29.94 843 24.89 -0.5 31.2 84 -2.8 27
13:00 1014 29.94 843 24.89 0.1 32.2 82 -2.6 27.3
13:05 1014 29.94 843 24.89 0.1 32.2 81 -2.7 27.1
13:10 1014 29.94 843 24.89 0.2 32.4 81 -2.7 27.1
13:15 1014 29.94 843 24.89 0.5 32.9 80 -2.5 27.6
13:20 1014 29.94 843 24.89 0.8 33.4 80 -2.4 27.7
13:25 1014 29.94 843 24.89 1 33.8 77 -2.6 27.3
13:30 1014 29.94 843 24.89 0.8 33.4 77 -2.8 27
13:35 1014 29.94 843 24.89 0.7 33.2 78 -2.8 27
13:40 1014 29.94 843 24.89 0.3 32.5 80 -2.8 27
13:45 1014 29.94 843 24.89 0.3 32.6 80 -2.7 27.2
13:50 1014 29.94 843 24.89 0.4 32.8 80 -2.6 27.3
13:55 1014 29.94 843 24.89 0.2 32.4 82 -2.5 27.5
14:00 1014 29.94 843 24.89 -0.2 31.6 85 -2.5 27.5
14:05 1014 29.94 843 24.89 -0.4 31.2 86 -2.5 27.5
14:10 1014 29.94 844 24.92 -0.7 30.7 87 -2.6 27.3
14:15 1014 29.94 844 24.92 -1 30.2 88 -2.7 27.2
14:20 1014 29.94 844 24.92 -1.3 29.7 90 -2.6 27.3
14:25 1014 29.94 844 24.92 -1.5 29.3 92 -2.6 27.3
14:30 1014 29.94 844 24.92 -1.6 29.1 93 -2.6 27.3
14:35 1014 29.94 844 24.92 -1.6 29.2 93 -2.5 27.5
14:40 1015 29.97 844 24.92 -1.5 29.3 94 -2.3 27.8
14:45 1015 29.97 844 24.92 -1.2 29.8 94 -2.1 28.3
14:50 1015 29.97 844 24.92 -1.1 30.1 94 -1.9 28.5
14:55 1015 29.97 844 24.92 -1.1 29.9 94 -2 28.4
15:00 1015 29.97 844 24.92 -1.1 30 94 -1.9 28.5
15:05 1015 29.97 844 24.92 -1.1 29.9 94 -2 28.5
15:10 1015 29.97 844 24.92 -1.1 30 94 -1.9 28.5
15:15 1015 29.97 844 24.92 -1.1 30.1 94 -1.9 28.6
15:20 1015 29.97 844 24.92 -1.1 30.1 94 -1.9 28.6
15:25 1015 29.97 844 24.92 -1 30.3 93 -1.9 28.5
15:30 1015 29.97 845 24.95 -1.2 29.9 93 -2.1 28.2
15:35 1015 29.97 845 24.95 -1.3 29.7 94 -2.2 28
15:40 1015 29.97 845 24.95 -1.4 29.5 94 -2.2 28
15:45 1016 30 845 24.95 -1.4 29.4 94 -2.3 27.9
15:50 1016 30 845 24.95 -1.4 29.4 94 -2.3 27.9
15:55 1016 30 845 24.95 -1.4 29.5 94 -2.3 27.9
16:00 1016 30 845 24.95 -1.3 29.6 94 -2.2 28
16:05 1016 30 845 24.95 -1.3 29.7 94 -2.2 28.1
16:10 1016 30 845 24.95 -1.2 29.9 94 -2 28.4
16:15 1016 30 845 24.95 -1.1 30.1 94 -2 28.5
16:20 1016 30 845 24.95 -1.3 29.7 94 -2.1 28.2
16:25 1016 30 845 24.95 -1.6 29.1 95 -2.3 27.9
16:30 1016 30 845 24.95 -1.8 28.8 96 -2.4 27.7
16:35 1016 30 845 24.95 -1.9 28.5 96 -2.4 27.6
16:40 1016 30 845 24.95 -1.8 28.8 96 -2.4 27.7
16:45 1016 30 845 24.95 -1.9 28.7 96 -2.5 27.6
16:50 1016 30 845 24.95 -1.6 29.1 96 -2.2 28.1
16:55 1016 30 846 24.98 -1.3 29.6 96 -1.9 28.6
17:00 1016 30 846 24.98 -0.9 30.4 96 -1.5 29.3
17:05 1016 30 846 24.98 -0.5 31.1 92 -1.6 29.1
17:10 1017 30.03 846 24.98 -0.3 31.4 88 -2 28.4
17:15 1017 30.03 846 24.98 -0.1 31.9 85 -2.2 28
17:20 1017 30.03 846 24.98 0.2 32.3 81 -2.7 27.1
17:25 1017 30.03 846 24.98 0.6 33 77 -3 26.7
17:30 1017 30.03 846 24.98 0 32.1 77 -3.6 25.5
17:35 1017 30.03 846 24.98 -0.7 30.8 77 -4.2 24.4
17:40 1017 30.03 846 24.98 -0.7 30.7 77 -4.2 24.4
17:45 1017 30.03 846 24.98 -0.7 30.8 76 -4.3 24.2
17:50 1017 30.03 847 25.01 -1.2 29.8 77 -4.7 23.5
17:55 1017 30.03 847 25.01 -1.6 29.1 77 -5 22.9
18:00 1018 30.06 847 25.01 -1.8 28.7 78 -5.2 22.6
18:05 1018 30.06 847 25.01 -1.9 28.6 77 -5.4 22.3
18:10 1018 30.06 847 25.01 -2.1 28.2 78 -5.5 22.1
18:15 1018 30.06 847 25.01 -2.2 28 77 -5.8 21.6
18:20 1018 30.06 847 25.01 -2.4 27.8 77 -5.9 21.3
18:25 1018 30.06 847 25.01 -2.5 27.6 76 -6 21.1
18:30 1018 30.06 847 25.01 -2.5 27.5 76 -6.1 21
18:35 1018 30.06 847 25.01 -2.4 27.6 75 -6.3 20.7
18:40 1018 30.06 848 25.04 -2.6 27.4 75 -6.3 20.6
18:45 1019 30.09 848 25.04 -2.5 27.4 75 -6.4 20.4
18:50 1019 30.09 848 25.04 -2.9 26.7 75 -6.7 19.9
18:55 1019 30.09 848 25.04 -3.2 26.2 76 -6.8 19.7
19:00 1019 30.09 848 25.04 -3.4 25.9 77 -6.8 19.7
19:05 1019 30.09 848 25.04 -3.8 25.1 79 -7 19.5
19:10 1019 30.09 848 25.04 -4.1 24.6 79 -7.1 19.1
19:15 1019 30.09 848 25.04 -4.1 24.6 79 -7.3 18.9
19:20 1019 30.09 848 25.04 -4.3 24.3 78 -7.6 18.4
19:25 1019 30.09 848 25.04 -4.4 24.1 78 -7.7 18.2
19:30 1019 30.09 848 25.04 -4.4 24.1 78 -7.7 18.2
19:35 1019 30.09 848 25.04 -4.4 24 78 -7.7 18.1
19:40 1019 30.09 848 25.04 -4.4 24.1 78 -7.7 18.1
19:45 1019 30.09 849 25.07 -4.5 23.9 78 -7.7 18.1
19:50 1019 30.09 849 25.07 -4.6 23.7 78 -7.8 18
19:55 1019 30.09 849 25.07 -4.7 23.6 79 -7.8 18
20:00 1019 30.09 849 25.07 -4.7 23.6 79 -7.8 18
20:05 1020 30.12 849 25.07 -4.7 23.6 79 -7.8 18
20:10 1020 30.12 849 25.07 -4.7 23.6 79 -7.8 17.9
20:15 1020 30.12 849 25.07 -4.8 23.4 80 -7.8 18
20:20 1020 30.12 849 25.07 -4.9 23.2 80 -7.8 17.9
20:25 1020 30.12 849 25.07 -5 23 81 -7.8 17.9
20:30 1020 30.12 849 25.07 -5.1 22.9 82 -7.7 18.2
20:35 1020 30.12 849 25.07 -5.2 22.7 84 -7.5 18.4
20:40 1020 30.12 849 25.07 -5.3 22.4 86 -7.4 18.7
20:45 1020 30.12 849 25.07 -5.5 22.2 87 -7.3 18.8
20:50 1020 30.12 849 25.07 -5.6 22 88 -7.2 19
20:55 1020 30.12 849 25.07 -5.6 21.8 89 -7.1 19.2
21:00 1020 30.12 849 25.07 -5.7 21.7 91 -7 19.4
21:05 1020 30.12 849 25.07 -5.8 21.6 91 -7 19.4
21:10 1020 30.12 849 25.07 -5.8 21.5 92 -7 19.5
21:15 1020 30.12 849 25.07 -5.9 21.3 92 -7 19.4
21:20 1020 30.12 850 25.1 -5.9 21.3 93 -6.9 19.6
21:25 1020 30.12 850 25.1 -5.9 21.4 93 -6.8 19.8
21:30 1020 30.12 850 25.1 -5.8 21.5 93 -6.8 19.8
21:35 1020 30.12 849 25.07 -6 21.3 94 -6.8 19.7
21:40 1020 30.12 849 25.07 -6 21.1 94 -6.9 19.6
21:45 1020 30.12 850 25.1 -6 21.3 94 -6.8 19.8
21:50 1020 30.12 850 25.1 -6 21.3 94 -6.8 19.8
21:55 1020 30.12 850 25.1 -6 21.2 94 -6.8 19.8
22:00 1020 30.12 850 25.1 -6 21.2 94 -6.8 19.8
22:05 1020 30.12 850 25.1 -6.1 21.1 94 -6.8 19.7
22:10 1020 30.12 850 25.1 -6.1 21 94 -6.9 19.7
22:15 1020 30.12 850 25.1 -6.2 20.9 95 -6.9 19.6
22:20 1020 30.12 850 25.1 -6.2 20.9 95 -6.9 19.6
22:25 1020 30.12 850 25.1 -6.2 20.9 95 -6.9 19.7
22:30 1020 30.12 850 25.1 -6.1 21 94 -6.9 19.6
22:35 1020 30.12 850 25.1 -6.2 20.8 94 -7 19.5
22:40 1020 30.12 850 25.1 -6.3 20.7 94 -7.1 19.2
22:45 1020 30.12 850 25.1 -6.3 20.6 94 -7.2 19
22:50 1020 30.12 850 25.1 -6.4 20.5 93 -7.3 18.8
22:55 1020 30.12 850 25.1 -6.4 20.6 93 -7.4 18.7
23:00 1020 30.12 850 25.1 -6.5 20.3 92 -7.6 18.3
23:05 1020 30.12 850 25.1 -6.7 19.9 92 -7.9 17.8
23:10 1020 30.12 850 25.1 -6.7 20 91 -7.9 17.8
23:15 1020 30.12 850 25.1 -6.6 20.1 90 -8 17.7
23:20 1020 30.12 850 25.1 -6.7 20 89 -8.2 17.3
23:25 1020 30.12 849 25.07 -7 19.3 89 -8.6 16.5
23:30 1020 30.12 850 25.1 -7.1 19.3 89 -8.6 16.5
23:35 1020 30.12 850 25.1 -7 19.4 88 -8.7 16.4
23:40 1020 30.12 849 25.07 -7.1 19.3 87 -8.8 16.1
23:45 1020 30.12 849 25.07 -7.6 18.4 87 -9.4 15.1
23:50 1020 30.12 849 25.07 -8 17.6 87 -9.8 14.4
23:55 1020 30.12 849 25.07 -8.2 17.2 88 -9.9 14.1
24:00 1020 30.12 849 25.07 -8.1 17.5 87 -9.9 14.2